createdAt,value
2018-09-28T00:00:58.972Z,7.69
2018-09-28T00:01:58.966Z,7.68
2018-09-28T00:02:58.952Z,7.69
2018-09-28T00:03:58.940Z,7.66
2018-09-28T00:04:58.931Z,7.66
2018-09-28T00:05:58.919Z,7.65
2018-09-28T00:06:58.909Z,7.65
2018-09-28T00:07:58.898Z,7.66
2018-09-28T00:08:58.887Z,7.66
2018-09-28T00:09:58.875Z,7.66
2018-09-28T00:10:58.868Z,7.66
2018-09-28T00:11:58.856Z,7.66
2018-09-28T00:12:58.848Z,7.66
2018-09-28T00:13:58.834Z,7.65
2018-09-28T00:14:58.827Z,7.65
2018-09-28T00:15:58.813Z,7.60
2018-09-28T00:16:58.802Z,7.57
2018-09-28T00:17:58.790Z,7.54
2018-09-28T00:18:58.780Z,7.52
2018-09-28T00:19:58.768Z,7.52
2018-09-28T00:20:58.760Z,7.52
2018-09-28T00:21:58.748Z,7.48
2018-09-28T00:22:58.740Z,7.51
2018-09-28T00:23:58.724Z,7.51
2018-09-28T00:24:58.715Z,7.51
2018-09-28T00:25:58.723Z,7.48
2018-09-28T00:26:58.694Z,7.45
2018-09-28T00:27:58.682Z,7.45
2018-09-28T00:28:58.673Z,7.41
2018-09-28T00:29:58.666Z,7.37
2018-09-28T00:30:58.652Z,7.36
2018-09-28T00:31:58.640Z,7.33
2018-09-28T00:32:58.630Z,7.34
2018-09-28T00:33:58.618Z,7.32
2018-09-28T00:34:58.608Z,7.29
2018-09-28T00:35:58.684Z,7.32
2018-09-28T00:36:58.586Z,7.32
2018-09-28T00:37:58.574Z,7.33
2018-09-28T00:38:58.566Z,7.33
2018-09-28T00:39:58.553Z,7.34
2018-09-28T00:40:58.542Z,7.34
2018-09-28T00:41:58.536Z,7.33
2018-09-28T00:42:58.523Z,7.29
2018-09-28T00:43:58.515Z,7.26
2018-09-28T00:44:58.499Z,7.23
2018-09-28T00:45:58.491Z,7.19
2018-09-28T00:46:58.482Z,7.19
2018-09-28T00:47:58.469Z,7.16
2018-09-28T00:48:58.455Z,7.15
2018-09-28T00:49:58.445Z,7.14
2018-09-28T00:50:58.433Z,7.11
2018-09-28T00:51:58.423Z,7.09
2018-09-28T00:52:58.413Z,7.09
2018-09-28T00:53:58.408Z,7.11
2018-09-28T00:54:58.391Z,7.09
2018-09-28T00:55:58.382Z,7.09
2018-09-28T00:56:58.370Z,7.07
2018-09-28T00:57:58.363Z,7.05
2018-09-28T00:58:58.349Z,7.01
2018-09-28T00:59:58.339Z,7.00
2018-09-28T01:00:58.329Z,7.00
2018-09-28T01:01:58.320Z,6.96
2018-09-28T01:02:58.314Z,6.97
2018-09-28T01:03:58.297Z,6.94
2018-09-28T01:04:58.283Z,6.94
2018-09-28T01:05:58.271Z,6.96
2018-09-28T01:06:58.265Z,6.97
2018-09-28T01:07:58.253Z,6.96
2018-09-28T01:08:58.246Z,6.94
2018-09-28T01:09:58.229Z,6.96
2018-09-28T01:10:58.222Z,6.99
2018-09-28T01:11:58.209Z,6.99
2018-09-28T01:12:58.198Z,6.99
2018-09-28T01:13:58.185Z,7.00
2018-09-28T01:14:58.174Z,7.00
2018-09-28T01:15:58.164Z,6.99
2018-09-28T01:16:58.152Z,7.00
2018-09-28T01:17:58.145Z,6.99
2018-09-28T01:18:58.132Z,6.96
2018-09-28T01:19:58.121Z,6.94
2018-09-28T01:20:58.111Z,6.94
2018-09-28T01:21:58.101Z,6.90
2018-09-28T01:22:58.107Z,6.89
2018-09-28T01:23:58.078Z,6.85
2018-09-28T01:24:58.069Z,6.85
2018-09-28T01:25:58.056Z,6.85
2018-09-28T01:26:58.050Z,6.85
2018-09-28T01:27:58.037Z,6.82
2018-09-28T01:28:58.024Z,6.81
2018-09-28T01:29:58.034Z,6.81
2018-09-28T01:30:58.004Z,6.78
2018-09-28T01:31:57.994Z,6.77
2018-09-28T01:32:57.983Z,6.75
2018-09-28T01:33:57.971Z,6.71
2018-09-28T01:34:57.960Z,6.70
2018-09-28T01:35:57.952Z,6.67
2018-09-28T01:36:57.940Z,6.63
2018-09-28T01:37:57.928Z,6.60
2018-09-28T01:38:57.919Z,6.57
2018-09-28T01:39:57.906Z,6.57
2018-09-28T01:40:57.896Z,6.56
2018-09-28T01:41:57.887Z,6.54
2018-09-28T01:42:57.876Z,6.56
2018-09-28T01:43:57.864Z,6.57
2018-09-28T01:44:57.853Z,6.54
2018-09-28T01:45:57.843Z,6.50
2018-09-28T01:46:57.832Z,6.47
2018-09-28T01:47:57.820Z,6.45
2018-09-28T01:48:57.811Z,6.44
2018-09-28T01:49:57.801Z,6.44
2018-09-28T01:50:57.788Z,6.44
2018-09-28T01:51:57.777Z,6.45
2018-09-28T01:52:57.767Z,6.45
2018-09-28T01:53:57.755Z,6.44
2018-09-28T01:54:57.746Z,6.44
2018-09-28T01:55:57.734Z,6.41
2018-09-28T01:56:57.724Z,6.41
2018-09-28T01:57:57.712Z,6.39
2018-09-28T01:58:57.702Z,6.37
2018-09-28T01:59:57.692Z,6.38
2018-09-28T02:00:57.685Z,6.38
2018-09-28T02:01:57.670Z,6.38
2018-09-28T02:02:57.659Z,6.34
2018-09-28T02:03:57.648Z,6.34
2018-09-28T02:04:57.647Z,6.31
2018-09-28T02:05:57.628Z,6.29
2018-09-28T02:06:57.618Z,6.29
2018-09-28T02:07:57.606Z,6.31
2018-09-28T02:08:57.598Z,6.31
2018-09-28T02:09:57.584Z,6.27
2018-09-28T02:10:57.575Z,6.27
2018-09-28T02:11:57.566Z,6.27
2018-09-28T02:12:57.555Z,6.24
2018-09-28T02:13:57.540Z,6.26
2018-09-28T02:14:57.529Z,6.26
2018-09-28T02:15:57.666Z,6.27
2018-09-28T02:16:57.508Z,6.27
2018-09-28T02:17:57.500Z,6.27
2018-09-28T02:18:57.492Z,6.27
2018-09-28T02:19:57.479Z,6.29
2018-09-28T02:20:57.464Z,6.29
2018-09-28T02:21:57.455Z,6.26
2018-09-28T02:22:57.444Z,6.26
2018-09-28T02:23:57.433Z,6.31
2018-09-28T02:24:57.420Z,6.31
2018-09-28T02:25:57.412Z,6.31
2018-09-28T02:26:57.400Z,6.29
2018-09-28T02:27:57.389Z,6.26
2018-09-28T02:28:57.381Z,6.23
2018-09-28T02:29:57.369Z,6.21
2018-09-28T02:30:57.359Z,6.20
2018-09-28T02:31:57.348Z,6.20
2018-09-28T02:32:57.335Z,6.21
2018-09-28T02:33:57.327Z,6.21
2018-09-28T02:34:57.316Z,6.20
2018-09-28T02:35:57.307Z,6.20
2018-09-28T02:36:57.294Z,6.19
2018-09-28T02:37:57.281Z,6.19
2018-09-28T02:38:57.271Z,6.21
2018-09-28T02:39:57.263Z,6.20
2018-09-28T02:40:57.255Z,6.19
2018-09-28T02:41:57.241Z,6.20
2018-09-28T02:42:57.231Z,6.20
2018-09-28T02:43:57.218Z,6.20
2018-09-28T02:44:57.209Z,6.20
2018-09-28T02:45:57.196Z,6.21
2018-09-28T02:46:57.188Z,6.20
2018-09-28T02:47:57.178Z,6.20
2018-09-28T02:48:57.166Z,6.20
2018-09-28T02:49:57.153Z,6.17
2018-09-28T02:50:57.143Z,6.16
2018-09-28T02:51:57.140Z,6.14
2018-09-28T02:52:57.125Z,6.13
2018-09-28T02:53:57.111Z,6.11
2018-09-28T02:54:57.099Z,6.13
2018-09-28T02:55:57.087Z,6.13
2018-09-28T02:56:57.140Z,6.14
2018-09-28T02:57:57.074Z,6.13
2018-09-28T02:58:57.070Z,6.11
2018-09-28T02:59:57.045Z,6.11
2018-09-28T03:00:57.085Z,6.11
2018-09-28T03:01:57.026Z,6.10
2018-09-28T03:02:57.018Z,6.08
2018-09-28T03:03:57.005Z,6.08
2018-09-28T03:04:56.991Z,6.06
2018-09-28T03:05:56.982Z,6.03
2018-09-28T03:06:56.971Z,6.05
2018-09-28T03:07:56.961Z,6.02
2018-09-28T03:08:56.950Z,6.01
2018-09-28T03:09:56.939Z,5.98
2018-09-28T03:10:56.928Z,5.98
2018-09-28T03:11:56.917Z,5.95
2018-09-28T03:12:56.915Z,5.95
2018-09-28T03:13:56.898Z,5.95
2018-09-28T03:14:56.886Z,5.96
2018-09-28T03:15:56.873Z,5.96
2018-09-28T03:16:56.866Z,5.95
2018-09-28T03:17:56.853Z,5.93
2018-09-28T03:18:56.842Z,5.90
2018-09-28T03:19:56.832Z,5.88
2018-09-28T03:20:56.833Z,5.88
2018-09-28T03:21:56.810Z,5.87
2018-09-28T03:22:56.798Z,5.84
2018-09-28T03:23:56.789Z,5.81
2018-09-28T03:24:56.776Z,5.83
2018-09-28T03:25:56.840Z,5.85
2018-09-28T03:26:56.756Z,5.85
2018-09-28T03:27:56.745Z,5.85
2018-09-28T03:28:56.737Z,5.87
2018-09-28T03:29:56.725Z,5.88
2018-09-28T03:30:56.714Z,5.90
2018-09-28T03:31:56.704Z,5.88
2018-09-28T03:32:56.693Z,5.88
2018-09-28T03:33:56.685Z,5.87
2018-09-28T03:34:56.671Z,5.88
2018-09-28T03:35:56.659Z,5.87
2018-09-28T03:36:56.649Z,5.85
2018-09-28T03:37:56.688Z,5.85
2018-09-28T03:38:56.628Z,5.85
2018-09-28T03:39:56.645Z,5.84
2018-09-28T03:40:56.605Z,5.83
2018-09-28T03:41:56.595Z,5.81
2018-09-28T03:42:56.586Z,5.80
2018-09-28T03:43:56.581Z,5.78
2018-09-28T03:44:56.563Z,5.81
2018-09-28T03:45:56.553Z,5.81
2018-09-28T03:46:56.541Z,5.80
2018-09-28T03:47:56.528Z,5.77
2018-09-28T03:48:56.520Z,5.74
2018-09-28T03:49:56.508Z,5.67
2018-09-28T03:50:56.498Z,5.66
2018-09-28T03:51:56.488Z,5.63
2018-09-28T03:52:56.483Z,5.63
2018-09-28T03:53:56.469Z,5.63
2018-09-28T03:54:56.459Z,5.62
2018-09-28T03:55:56.448Z,5.60
2018-09-28T03:56:56.433Z,5.59
2018-09-28T03:57:56.420Z,5.59
2018-09-28T03:58:56.411Z,5.58
2018-09-28T03:59:56.402Z,5.56
2018-09-28T04:00:56.393Z,5.58
2018-09-28T04:01:56.378Z,5.59
2018-09-28T04:02:56.383Z,5.58
2018-09-28T04:03:56.357Z,5.56
2018-09-28T04:04:56.348Z,5.52
2018-09-28T04:05:56.337Z,5.52
2018-09-28T04:06:56.327Z,5.52
2018-09-28T04:07:56.316Z,5.50
2018-09-28T04:08:56.305Z,5.48
2018-09-28T04:09:56.294Z,5.50
2018-09-28T04:10:56.283Z,5.47
2018-09-28T04:11:56.271Z,5.46
2018-09-28T04:12:56.264Z,5.48
2018-09-28T04:13:56.252Z,5.48
2018-09-28T04:14:56.279Z,5.50
2018-09-28T04:15:56.228Z,5.52
2018-09-28T04:16:56.220Z,5.52
2018-09-28T04:17:56.208Z,5.52
2018-09-28T04:18:56.197Z,5.50
2018-09-28T04:19:56.189Z,5.47
2018-09-28T04:20:56.180Z,5.47
2018-09-28T04:21:56.226Z,5.46
2018-09-28T04:22:56.153Z,5.43
2018-09-28T04:23:56.144Z,5.40
2018-09-28T04:24:56.132Z,5.39
2018-09-28T04:25:56.124Z,5.37
2018-09-28T04:26:56.111Z,5.40
2018-09-28T04:27:56.098Z,5.40
2018-09-28T04:28:56.093Z,5.41
2018-09-28T04:29:56.078Z,5.43
2018-09-28T04:30:56.069Z,5.44
2018-09-28T04:31:56.057Z,5.46
2018-09-28T04:32:56.046Z,5.44
2018-09-28T04:33:56.040Z,5.43
2018-09-28T04:34:56.024Z,5.40
2018-09-28T04:35:56.018Z,5.39
2018-09-28T04:36:56.002Z,5.36
2018-09-28T04:37:55.992Z,5.34
2018-09-28T04:38:55.982Z,5.32
2018-09-28T04:39:55.970Z,5.34
2018-09-28T04:40:55.961Z,5.37
2018-09-28T04:41:55.947Z,5.39
2018-09-28T04:42:55.938Z,5.37
2018-09-28T04:43:55.928Z,5.37
2018-09-28T04:44:55.919Z,5.37
2018-09-28T04:45:55.906Z,5.34
2018-09-28T04:46:55.897Z,5.34
2018-09-28T04:47:55.887Z,5.32
2018-09-28T04:48:55.874Z,5.28
2018-09-28T04:49:55.865Z,5.26
2018-09-28T04:50:55.854Z,5.25
2018-09-28T04:51:55.841Z,5.22
2018-09-28T04:52:55.831Z,5.19
2018-09-28T04:53:55.821Z,5.18
2018-09-28T04:54:55.810Z,5.14
2018-09-28T04:55:55.801Z,5.11
2018-09-28T04:56:55.788Z,5.11
2018-09-28T04:57:55.778Z,5.10
2018-09-28T04:58:55.767Z,5.07
2018-09-28T04:59:55.756Z,5.05
2018-09-28T05:00:55.744Z,5.05
2018-09-28T05:01:55.735Z,5.04
2018-09-28T05:02:55.723Z,5.01
2018-09-28T05:03:55.721Z,5.03
2018-09-28T05:04:55.701Z,5.01
2018-09-28T05:05:55.692Z,5.00
2018-09-28T05:06:55.681Z,4.96
2018-09-28T05:07:55.670Z,4.98
2018-09-28T05:08:55.658Z,5.00
2018-09-28T05:09:55.647Z,5.03
2018-09-28T05:10:55.639Z,5.03
2018-09-28T05:11:55.625Z,5.04
2018-09-28T05:12:55.638Z,5.07
2018-09-28T05:13:55.605Z,5.08
2018-09-28T05:14:55.599Z,5.10
2018-09-28T05:15:55.586Z,5.13
2018-09-28T05:16:55.572Z,5.13
2018-09-28T05:17:55.564Z,5.13
2018-09-28T05:18:55.551Z,5.13
2018-09-28T05:19:55.543Z,5.11
2018-09-28T05:20:55.530Z,5.11
2018-09-28T05:21:55.519Z,5.13
2018-09-28T05:22:55.508Z,5.13
2018-09-28T05:23:55.500Z,5.14
2018-09-28T05:24:55.486Z,5.11
2018-09-28T05:25:55.479Z,5.10
2018-09-28T05:26:55.464Z,5.08
2018-09-28T05:27:55.458Z,5.10
2018-09-28T05:28:55.444Z,5.10
2018-09-28T05:29:55.434Z,5.14
2018-09-28T05:30:55.427Z,5.14
2018-09-28T05:31:55.653Z,5.13
2018-09-28T05:32:55.536Z,5.14
2018-09-28T05:33:55.391Z,5.13
2018-09-28T05:34:55.378Z,5.13
2018-09-28T05:35:55.367Z,5.13
2018-09-28T05:36:55.358Z,5.11
2018-09-28T05:37:55.347Z,5.08
2018-09-28T05:38:55.341Z,5.08
2018-09-28T05:39:55.326Z,5.10
2018-09-28T05:40:55.314Z,5.13
2018-09-28T05:41:55.307Z,5.14
2018-09-28T05:42:55.294Z,5.19
2018-09-28T05:43:55.356Z,5.25
2018-09-28T05:44:55.272Z,5.28
2018-09-28T05:45:55.264Z,5.29
2018-09-28T05:46:55.251Z,5.34
2018-09-28T05:47:55.241Z,5.36
2018-09-28T05:48:55.228Z,5.39
2018-09-28T05:49:55.219Z,5.40
2018-09-28T05:50:55.206Z,5.44
2018-09-28T05:51:55.202Z,5.46
2018-09-28T05:52:55.186Z,5.46
2018-09-28T05:53:55.197Z,5.50
2018-09-28T05:54:55.165Z,5.66
2018-09-28T05:55:55.155Z,5.93
2018-09-28T05:56:55.144Z,6.24
2018-09-28T05:57:55.195Z,6.53
2018-09-28T05:58:55.121Z,6.78
2018-09-28T05:59:55.112Z,7.09
2018-09-28T06:00:55.100Z,7.29
2018-09-28T06:01:55.090Z,7.45
2018-09-28T06:02:55.078Z,7.57
2018-09-28T06:03:55.067Z,7.70
2018-09-28T06:04:55.059Z,7.78
2018-09-28T06:05:55.050Z,7.65
2018-09-28T06:06:55.033Z,7.62
2018-09-28T06:07:55.022Z,7.58
2018-09-28T06:08:55.014Z,7.57
2018-09-28T06:09:55.002Z,7.57
2018-09-28T06:10:54.989Z,7.62
2018-09-28T06:11:54.979Z,7.78
2018-09-28T06:12:54.969Z,8.09
2018-09-28T06:13:54.957Z,8.21
2018-09-28T06:14:54.948Z,8.01
2018-09-28T06:15:54.944Z,7.83
2018-09-28T06:16:54.924Z,7.76
2018-09-28T06:17:54.973Z,7.73
2018-09-28T06:18:54.912Z,7.80
2018-09-28T06:19:54.895Z,7.75
2018-09-28T06:20:54.882Z,7.70
2018-09-28T06:21:54.872Z,7.63
2018-09-28T06:22:54.859Z,7.54
2018-09-28T06:23:54.852Z,7.62
2018-09-28T06:24:54.839Z,7.69
2018-09-28T06:25:54.877Z,7.78
2018-09-28T06:26:54.817Z,8.13
2018-09-28T06:27:54.808Z,8.42
2018-09-28T06:28:54.796Z,8.54
2018-09-28T06:29:54.810Z,8.37
2018-09-28T06:30:54.774Z,8.40
2018-09-28T06:31:54.762Z,8.17
2018-09-28T06:32:54.758Z,8.05
2018-09-28T06:33:54.743Z,7.95
2018-09-28T06:34:54.732Z,7.90
2018-09-28T06:35:54.775Z,7.81
2018-09-28T06:36:54.711Z,7.84
2018-09-28T06:37:54.697Z,8.02
2018-09-28T06:38:54.741Z,8.30
2018-09-28T06:39:54.677Z,8.65
2018-09-28T06:40:54.664Z,8.86
2018-09-28T06:41:54.660Z,8.73
2018-09-28T06:42:54.646Z,8.88
2018-09-28T06:43:54.634Z,9.34
2018-09-28T06:44:54.625Z,9.85
2018-09-28T06:45:54.611Z,9.92
2018-09-28T06:46:54.600Z,10.14
2018-09-28T06:47:54.721Z,10.11
2018-09-28T06:48:54.584Z,10.01
2018-09-28T06:49:54.569Z,10.04
2018-09-28T06:50:54.558Z,10.04
2018-09-28T06:51:54.548Z,10.06
2018-09-28T06:52:54.537Z,9.93
2018-09-28T06:53:54.612Z,10.31
2018-09-28T06:54:54.516Z,10.61
2018-09-28T06:55:54.507Z,10.75
2018-09-28T06:56:54.494Z,10.62
2018-09-28T06:57:54.483Z,10.86
2018-09-28T06:58:54.474Z,11.16
2018-09-28T06:59:54.546Z,11.04
2018-09-28T07:00:54.449Z,10.85
2018-09-28T07:01:54.440Z,10.47
2018-09-28T07:02:54.429Z,10.67
2018-09-28T07:03:54.439Z,10.44
2018-09-28T07:04:54.406Z,9.88
2018-09-28T07:05:54.406Z,9.41
2018-09-28T07:06:54.391Z,9.11
2018-09-28T07:07:54.374Z,8.86
2018-09-28T07:08:54.363Z,8.65
2018-09-28T07:09:54.354Z,8.49
2018-09-28T07:10:54.343Z,8.35
2018-09-28T07:11:54.367Z,8.27
2018-09-28T07:12:54.332Z,8.24
2018-09-28T07:13:54.310Z,8.26
2018-09-28T07:14:54.297Z,8.24
2018-09-28T07:15:54.287Z,8.27
2018-09-28T07:16:54.361Z,8.31
2018-09-28T07:17:54.324Z,8.37
2018-09-28T07:18:54.257Z,8.35
2018-09-28T07:19:54.246Z,8.40
2018-09-28T07:20:54.233Z,8.42
2018-09-28T07:21:54.221Z,8.47
2018-09-28T07:22:54.212Z,8.50
2018-09-28T07:23:54.278Z,8.52
2018-09-28T07:24:54.211Z,8.54
2018-09-28T07:25:54.178Z,8.57
2018-09-28T07:26:54.170Z,8.61
2018-09-28T07:27:54.158Z,8.64
2018-09-28T07:28:54.145Z,8.71
2018-09-28T07:29:54.171Z,8.75
2018-09-28T07:30:54.124Z,8.78
2018-09-28T07:31:54.115Z,8.80
2018-09-28T07:32:54.104Z,8.85
2018-09-28T07:33:54.090Z,8.88
2018-09-28T07:34:54.082Z,8.89
2018-09-28T07:35:54.146Z,8.97
2018-09-28T07:36:54.076Z,9.00
2018-09-28T07:37:54.047Z,9.03
2018-09-28T07:38:54.038Z,9.14
2018-09-28T07:39:54.028Z,9.21
2018-09-28T07:40:54.017Z,9.29
2018-09-28T07:41:54.044Z,9.33
2018-09-28T07:42:53.995Z,9.37
2018-09-28T07:43:53.984Z,9.37
2018-09-28T07:44:53.970Z,9.39
2018-09-28T07:45:53.962Z,9.40
2018-09-28T07:46:53.952Z,9.44
2018-09-28T07:47:53.987Z,9.48
2018-09-28T07:48:53.929Z,9.51
2018-09-28T07:49:53.922Z,9.51
2018-09-28T07:50:53.908Z,9.48
2018-09-28T07:51:53.894Z,9.44
2018-09-28T07:52:53.890Z,9.43
2018-09-28T07:53:53.874Z,9.48
2018-09-28T07:54:53.863Z,9.54
2018-09-28T07:55:53.970Z,9.66
2018-09-28T07:56:53.841Z,9.74
2018-09-28T07:57:53.830Z,9.85
2018-09-28T07:58:53.821Z,9.92
2018-09-28T07:59:53.811Z,9.93
2018-09-28T08:00:53.798Z,9.96
2018-09-28T08:01:53.788Z,10.02
2018-09-28T08:02:53.776Z,10.06
2018-09-28T08:03:53.817Z,10.11
2018-09-28T08:04:53.755Z,10.20
2018-09-28T08:05:53.746Z,10.26
2018-09-28T08:06:53.736Z,10.31
2018-09-28T08:07:53.723Z,10.35
2018-09-28T08:08:53.714Z,10.35
2018-09-28T08:09:53.700Z,10.35
2018-09-28T08:10:53.691Z,10.39
2018-09-28T08:11:53.679Z,10.44
2018-09-28T08:12:53.669Z,10.51
2018-09-28T08:13:53.656Z,10.53
2018-09-28T08:14:53.645Z,10.56
2018-09-28T08:15:53.636Z,10.56
2018-09-28T08:16:53.623Z,10.56
2018-09-28T08:17:53.625Z,10.54
2018-09-28T08:18:53.606Z,10.53
2018-09-28T08:19:53.592Z,10.53
2018-09-28T08:20:53.580Z,10.54
2018-09-28T08:21:53.573Z,10.54
2018-09-28T08:22:53.558Z,10.51
2018-09-28T08:23:53.548Z,10.57
2018-09-28T08:24:53.538Z,10.64
2018-09-28T08:25:53.529Z,10.69
2018-09-28T08:26:53.517Z,10.72
2018-09-28T08:27:53.506Z,10.74
2018-09-28T08:28:53.495Z,10.71
2018-09-28T08:29:53.506Z,10.65
2018-09-28T08:30:53.473Z,10.57
2018-09-28T08:31:53.461Z,10.49
2018-09-28T08:32:53.451Z,10.42
2018-09-28T08:33:53.438Z,10.38
2018-09-28T08:34:53.427Z,10.32
2018-09-28T08:35:53.436Z,10.32
2018-09-28T08:36:53.459Z,10.29
2018-09-28T08:37:53.408Z,10.26
2018-09-28T08:38:53.402Z,10.22
2018-09-28T08:39:53.375Z,10.16
2018-09-28T08:40:53.364Z,10.13
2018-09-28T08:41:53.398Z,10.11
2018-09-28T08:42:53.341Z,10.11
2018-09-28T08:43:53.329Z,10.13
2018-09-28T08:44:53.319Z,10.17
2018-09-28T08:45:53.333Z,10.17
2018-09-28T08:46:53.299Z,10.22
2018-09-28T08:47:53.288Z,10.22
2018-09-28T08:48:53.278Z,10.24
2018-09-28T08:49:53.265Z,10.26
2018-09-28T08:50:53.255Z,10.28
2018-09-28T08:51:53.245Z,10.29
2018-09-28T08:52:53.234Z,10.26
2018-09-28T08:53:53.222Z,10.20
2018-09-28T08:54:53.211Z,10.18
2018-09-28T08:55:53.199Z,10.13
2018-09-28T08:56:53.190Z,10.10
2018-09-28T08:57:53.181Z,10.07
2018-09-28T08:58:53.168Z,10.06
2018-09-28T08:59:53.157Z,10.02
2018-09-28T09:00:53.146Z,10.01
2018-09-28T09:01:53.135Z,9.95
2018-09-28T09:02:53.138Z,9.95
2018-09-28T09:03:53.115Z,9.95
2018-09-28T09:04:53.101Z,9.95
2018-09-28T09:05:53.092Z,9.92
2018-09-28T09:06:53.085Z,9.91
2018-09-28T09:07:53.070Z,9.91
2018-09-28T09:08:53.059Z,9.92
2018-09-28T09:09:53.047Z,9.93
2018-09-28T09:10:53.038Z,9.95
2018-09-28T09:11:53.024Z,9.93
2018-09-28T09:12:53.062Z,9.96
2018-09-28T09:13:53.007Z,9.98
2018-09-28T09:14:52.993Z,10.01
2018-09-28T09:15:52.982Z,10.02
2018-09-28T09:16:52.970Z,10.04
2018-09-28T09:17:53.015Z,10.07
2018-09-28T09:18:52.951Z,10.10
2018-09-28T09:19:52.938Z,10.10
2018-09-28T09:20:52.929Z,10.13
2018-09-28T09:21:52.916Z,10.16
2018-09-28T09:22:52.908Z,10.18
2018-09-28T09:23:52.921Z,10.17
2018-09-28T09:24:52.884Z,10.14
2018-09-28T09:25:52.878Z,10.06
2018-09-28T09:26:52.864Z,9.91
2018-09-28T09:27:52.852Z,9.81
2018-09-28T09:28:52.846Z,9.67
2018-09-28T09:29:52.829Z,9.57
2018-09-28T09:30:52.819Z,9.59
2018-09-28T09:31:52.807Z,9.61
2018-09-28T09:32:52.797Z,9.59
2018-09-28T09:33:52.785Z,9.61
2018-09-28T09:34:52.773Z,9.67
2018-09-28T09:35:52.767Z,9.76
2018-09-28T09:36:52.759Z,9.86
2018-09-28T09:37:52.746Z,9.93
2018-09-28T09:38:52.733Z,9.98
2018-09-28T09:39:52.720Z,9.98
2018-09-28T09:40:52.714Z,10.02
2018-09-28T09:41:52.699Z,10.07
2018-09-28T09:42:52.690Z,10.07
2018-09-28T09:43:52.681Z,10.02
2018-09-28T09:44:52.667Z,10.02
2018-09-28T09:45:52.656Z,10.06
2018-09-28T09:46:52.644Z,10.11
2018-09-28T09:47:52.635Z,10.17
2018-09-28T09:48:52.624Z,10.22
2018-09-28T09:49:52.610Z,10.25
2018-09-28T09:50:52.607Z,10.26
2018-09-28T09:51:52.592Z,10.26
2018-09-28T09:52:52.580Z,10.26
2018-09-28T09:53:52.568Z,10.25
2018-09-28T09:54:52.558Z,10.25
2018-09-28T09:55:52.545Z,10.26
2018-09-28T09:56:52.535Z,10.26
2018-09-28T09:57:52.714Z,10.26
2018-09-28T09:58:52.517Z,10.26
2018-09-28T09:59:52.504Z,10.24
2018-09-28T10:00:52.494Z,10.16
2018-09-28T10:01:52.481Z,10.09
2018-09-28T10:02:52.473Z,10.02
2018-09-28T10:03:52.461Z,9.98
2018-09-28T10:04:52.449Z,9.98
2018-09-28T10:05:52.439Z,9.93
2018-09-28T10:06:52.426Z,9.92
2018-09-28T10:07:52.417Z,9.91
2018-09-28T10:08:52.418Z,9.92
2018-09-28T10:09:52.395Z,9.96
2018-09-28T10:10:52.383Z,10.02
2018-09-28T10:11:52.370Z,10.04
2018-09-28T10:12:52.439Z,9.99
2018-09-28T10:13:52.350Z,9.98
2018-09-28T10:14:52.343Z,9.92
2018-09-28T10:15:52.329Z,9.95
2018-09-28T10:16:52.316Z,10.01
2018-09-28T10:17:52.308Z,10.07
2018-09-28T10:18:52.297Z,10.16
2018-09-28T10:19:52.287Z,10.25
2018-09-28T10:20:52.274Z,10.32
2018-09-28T10:21:52.269Z,10.34
2018-09-28T10:22:52.256Z,10.35
2018-09-28T10:23:52.242Z,10.38
2018-09-28T10:24:52.233Z,10.43
2018-09-28T10:25:52.223Z,10.43
2018-09-28T10:26:52.210Z,10.46
2018-09-28T10:27:52.258Z,10.43
2018-09-28T10:28:52.188Z,10.43
2018-09-28T10:29:52.176Z,10.39
2018-09-28T10:30:52.168Z,10.44
2018-09-28T10:31:52.154Z,10.46
2018-09-28T10:32:52.143Z,10.51
2018-09-28T10:33:52.135Z,10.59
2018-09-28T10:34:52.168Z,10.64
2018-09-28T10:35:52.111Z,10.62
2018-09-28T10:36:52.106Z,10.57
2018-09-28T10:37:52.091Z,10.53
2018-09-28T10:38:52.079Z,10.64
2018-09-28T10:39:52.137Z,10.69
2018-09-28T10:40:52.185Z,10.77
2018-09-28T10:41:52.046Z,10.80
2018-09-28T10:42:52.038Z,10.80
2018-09-28T10:43:52.025Z,10.77
2018-09-28T10:44:52.013Z,10.83
2018-09-28T10:45:52.068Z,10.79
2018-09-28T10:46:51.993Z,10.75
2018-09-28T10:47:51.981Z,10.71
2018-09-28T10:48:51.970Z,10.74
2018-09-28T10:49:51.959Z,10.80
2018-09-28T10:50:51.968Z,10.83
2018-09-28T10:51:52.073Z,10.90
2018-09-28T10:52:52.063Z,10.89
2018-09-28T10:53:51.917Z,10.93
2018-09-28T10:54:51.905Z,11.00
2018-09-28T10:55:51.896Z,11.04
2018-09-28T10:56:51.883Z,11.02
2018-09-28T10:57:51.872Z,11.01
2018-09-28T10:58:51.889Z,10.97
2018-09-28T10:59:51.851Z,10.94
2018-09-28T11:00:51.839Z,10.93
2018-09-28T11:01:51.829Z,10.93
2018-09-28T11:02:51.819Z,10.97
2018-09-28T11:03:51.808Z,11.00
2018-09-28T11:04:51.800Z,10.94
2018-09-28T11:05:51.788Z,10.98
2018-09-28T11:06:51.773Z,10.97
2018-09-28T11:07:51.767Z,10.97
2018-09-28T11:08:51.817Z,11.01
2018-09-28T11:09:51.742Z,11.02
2018-09-28T11:10:51.752Z,10.97
2018-09-28T11:11:51.718Z,10.98
2018-09-28T11:12:51.708Z,10.98
2018-09-28T11:13:51.696Z,11.02
2018-09-28T11:14:51.688Z,11.02
2018-09-28T11:15:51.809Z,11.00
2018-09-28T11:16:51.664Z,10.92
2018-09-28T11:17:51.655Z,10.92
2018-09-28T11:18:51.658Z,10.90
2018-09-28T11:19:51.632Z,10.90
2018-09-28T11:20:51.620Z,10.90
2018-09-28T11:21:51.612Z,10.94
2018-09-28T11:22:51.600Z,11.00
2018-09-28T11:23:51.592Z,11.08
2018-09-28T11:24:51.580Z,11.11
2018-09-28T11:25:51.568Z,11.16
2018-09-28T11:26:51.555Z,11.26
2018-09-28T11:27:51.631Z,11.33
2018-09-28T11:28:51.536Z,11.35
2018-09-28T11:29:51.522Z,11.41
2018-09-28T11:30:51.512Z,11.39
2018-09-28T11:31:51.499Z,11.39
2018-09-28T11:32:51.492Z,11.41
2018-09-28T11:33:51.620Z,11.46
2018-09-28T11:34:51.470Z,11.45
2018-09-28T11:35:51.459Z,11.41
2018-09-28T11:36:51.448Z,11.33
2018-09-28T11:37:51.582Z,11.23
2018-09-28T11:38:51.424Z,11.19
2018-09-28T11:39:51.450Z,11.16
2018-09-28T11:40:51.405Z,11.12
2018-09-28T11:41:51.392Z,11.08
2018-09-28T11:42:51.381Z,11.12
2018-09-28T11:43:51.372Z,11.26
2018-09-28T11:44:51.360Z,11.30
2018-09-28T11:45:51.495Z,11.31
2018-09-28T11:46:51.338Z,11.31
2018-09-28T11:47:51.326Z,11.27
2018-09-28T11:48:51.319Z,11.27
2018-09-28T11:49:51.306Z,11.30
2018-09-28T11:50:51.295Z,11.33
2018-09-28T11:51:51.410Z,11.31
2018-09-28T11:52:51.274Z,11.30
2018-09-28T11:53:51.263Z,11.26
2018-09-28T11:54:51.254Z,11.18
2018-09-28T11:55:51.240Z,11.11
2018-09-28T11:56:51.228Z,11.12
2018-09-28T11:57:51.217Z,11.11
2018-09-28T11:58:51.210Z,11.08
2018-09-28T11:59:51.286Z,11.12
2018-09-28T12:00:51.187Z,11.19
2018-09-28T12:01:51.175Z,11.19
2018-09-28T12:02:51.167Z,11.21
2018-09-28T12:03:51.246Z,11.19
2018-09-28T12:04:51.144Z,11.15
2018-09-28T12:05:51.133Z,11.12
2018-09-28T12:06:51.209Z,11.18
2018-09-28T12:07:51.111Z,11.21
2018-09-28T12:08:51.103Z,11.21
2018-09-28T12:09:51.091Z,11.21
2018-09-28T12:10:51.144Z,11.11
2018-09-28T12:11:51.068Z,11.10
2018-09-28T12:12:51.058Z,11.11
2018-09-28T12:13:51.051Z,11.15
2018-09-28T12:14:51.033Z,11.21
2018-09-28T12:15:51.144Z,11.24
2018-09-28T12:16:51.014Z,11.26
2018-09-28T12:17:51.002Z,11.28
2018-09-28T12:18:51.018Z,11.38
2018-09-28T12:19:50.982Z,11.42
2018-09-28T12:20:50.969Z,11.44
2018-09-28T12:21:51.101Z,11.42
2018-09-28T12:22:50.949Z,11.35
2018-09-28T12:23:50.938Z,11.31
2018-09-28T12:24:50.982Z,11.33
2018-09-28T12:25:50.914Z,11.35
2018-09-28T12:26:50.902Z,11.35
2018-09-28T12:27:51.006Z,11.30
2018-09-28T12:28:50.883Z,11.27
2018-09-28T12:29:50.871Z,11.30
2018-09-28T12:30:51.019Z,11.31
2018-09-28T12:31:50.848Z,11.33
2018-09-28T12:32:50.839Z,11.36
2018-09-28T12:33:50.828Z,11.35
2018-09-28T12:34:50.817Z,11.36
2018-09-28T12:35:50.805Z,11.31
2018-09-28T12:36:50.845Z,11.26
2018-09-28T12:37:50.783Z,11.24
2018-09-28T12:38:50.773Z,11.21
2018-09-28T12:39:50.791Z,11.24
2018-09-28T12:40:50.751Z,11.26
2018-09-28T12:41:50.741Z,11.33
2018-09-28T12:42:50.800Z,11.39
2018-09-28T12:43:50.717Z,11.41
2018-09-28T12:44:50.763Z,11.39
2018-09-28T12:45:50.697Z,11.45
2018-09-28T12:46:50.686Z,11.51
2018-09-28T12:47:50.674Z,11.57
2018-09-28T12:48:50.679Z,11.63
2018-09-28T12:49:50.656Z,11.69
2018-09-28T12:50:50.644Z,11.72
2018-09-28T12:51:50.632Z,11.77
2018-09-28T12:52:50.623Z,11.79
2018-09-28T12:53:50.610Z,11.87
2018-09-28T12:54:50.692Z,11.88
2018-09-28T12:55:50.592Z,11.92
2018-09-28T12:56:50.680Z,11.97
2018-09-28T12:57:50.565Z,12.03
2018-09-28T12:58:50.555Z,12.10
2018-09-28T12:59:50.546Z,12.17
2018-09-28T13:00:50.677Z,12.24
2018-09-28T13:01:50.523Z,12.35
2018-09-28T13:02:50.562Z,12.40
2018-09-28T13:03:50.501Z,12.45
2018-09-28T13:04:50.494Z,12.51
2018-09-28T13:05:50.479Z,12.57
2018-09-28T13:06:50.477Z,12.61
2018-09-28T13:07:50.456Z,12.63
2018-09-28T13:08:50.562Z,12.61